sensor_id;sensor_type;location;lat;lon;timestamp;pressure;altitude;pressure_sealevel;temperature;humidity
35989;BME280;22064;42.672;23.282;2022-09-09T00:02:05;94888.19;;;16.77;100.00
35989;BME280;22064;42.672;23.282;2022-09-09T00:04:40;94866.75;;;16.55;100.00
35989;BME280;22064;42.672;23.282;2022-09-09T00:10:03;94873.19;;;16.73;100.00
35989;BME280;22064;42.672;23.282;2022-09-09T00:13:01;94877.09;;;16.85;100.00
35989;BME280;22064;42.672;23.282;2022-09-09T00:18:05;94886.19;;;16.54;100.00
35989;BME280;22064;42.672;23.282;2022-09-09T00:21:02;94873.59;;;16.51;100.00
35989;BME280;22064;42.672;23.282;2022-09-09T00:23:38;94865.13;;;16.64;100.00
35989;BME280;22064;42.672;23.282;2022-09-09T00:26:19;94861.63;;;16.74;100.00
35989;BME280;22064;42.672;23.282;2022-09-09T00:28:52;94858.97;;;16.79;100.00
35989;BME280;22064;42.672;23.282;2022-09-09T00:31:23;94857.63;;;16.81;100.00
35989;BME280;22064;42.672;23.282;2022-09-09T00:33:50;94838.97;;;16.83;100.00
35989;BME280;22064;42.672;23.282;2022-09-09T00:36:21;94843.69;;;16.86;100.00
35989;BME280;22064;42.672;23.282;2022-09-09T00:38:59;94842.53;;;16.58;100.00
35989;BME280;22064;42.672;23.282;2022-09-09T00:44:03;94837.22;;;16.63;100.00
35989;BME280;22064;42.672;23.282;2022-09-09T00:46:46;94838.53;;;16.66;100.00
35989;BME280;22064;42.672;23.282;2022-09-09T00:57:35;94842.81;;;16.12;100.00
35989;BME280;22064;42.672;23.282;2022-09-09T01:00:30;94854.47;;;15.96;100.00
35989;BME280;22064;42.672;23.282;2022-09-09T01:06:34;94843.50;;;15.78;100.00
35989;BME280;22064;42.672;23.282;2022-09-09T01:09:18;94853.41;;;15.91;100.00
35989;BME280;22064;42.672;23.282;2022-09-09T01:17:07;94848.88;;;16.07;100.00
35989;BME280;22064;42.672;23.282;2022-09-09T01:25:13;94842.31;;;16.10;100.00
35989;BME280;22064;42.672;23.282;2022-09-09T01:28:04;94833.31;;;16.21;100.00
35989;BME280;22064;42.672;23.282;2022-09-09T01:30:37;94838.50;;;16.31;100.00
35989;BME280;22064;42.672;23.282;2022-09-09T01:33:03;94850.69;;;16.17;100.00
35989;BME280;22064;42.672;23.282;2022-09-09T01:35:36;94835.31;;;15.95;100.00
35989;BME280;22064;42.672;23.282;2022-09-09T01:38:04;94851.38;;;15.83;100.00
35989;BME280;22064;42.672;23.282;2022-09-09T01:40:30;94844.63;;;15.46;100.00
35989;BME280;22064;42.672;23.282;2022-09-09T01:42:57;94841.25;;;15.41;100.00
35989;BME280;22064;42.672;23.282;2022-09-09T01:45:24;94853.59;;;15.35;100.00
35989;BME280;22064;42.672;23.282;2022-09-09T01:47:51;94856.47;;;15.34;100.00
35989;BME280;22064;42.672;23.282;2022-09-09T01:50:25;94849.94;;;15.16;100.00
35989;BME280;22064;42.672;23.282;2022-09-09T01:52:55;94861.75;;;15.23;100.00
35989;BME280;22064;42.672;23.282;2022-09-09T01:55:33;94859.34;;;15.32;100.00
35989;BME280;22064;42.672;23.282;2022-09-09T02:03:32;94860.06;;;15.63;100.00
35989;BME280;22064;42.672;23.282;2022-09-09T02:06:18;94864.53;;;15.73;100.00
35989;BME280;22064;42.672;23.282;2022-09-09T02:09:00;94854.81;;;15.74;100.00
35989;BME280;22064;42.672;23.282;2022-09-09T02:11:28;94862.38;;;15.85;100.00
35989;BME280;22064;42.672;23.282;2022-09-09T02:14:11;94847.66;;;15.89;100.00
35989;BME280;22064;42.672;23.282;2022-09-09T02:16:48;94836.09;;;15.90;100.00
35989;BME280;22064;42.672;23.282;2022-09-09T02:19:26;94839.88;;;15.69;100.00
35989;BME280;22064;42.672;23.282;2022-09-09T02:22:07;94843.28;;;15.54;100.00
35989;BME280;22064;42.672;23.282;2022-09-09T02:24:36;94839.16;;;15.43;100.00
35989;BME280;22064;42.672;23.282;2022-09-09T02:27:24;94839.97;;;15.33;100.00
35989;BME280;22064;42.672;23.282;2022-09-09T02:29:52;94843.91;;;15.25;100.00
35989;BME280;22064;42.672;23.282;2022-09-09T02:32:28;94848.88;;;15.22;100.00
35989;BME280;22064;42.672;23.282;2022-09-09T02:35:00;94839.47;;;15.16;100.00
35989;BME280;22064;42.672;23.282;2022-09-09T02:37:33;94847.84;;;15.13;100.00
35989;BME280;22064;42.672;23.282;2022-09-09T02:40:03;94854.94;;;14.92;100.00
35989;BME280;22064;42.672;23.282;2022-09-09T02:42:29;94872.00;;;14.79;100.00
35989;BME280;22064;42.672;23.282;2022-09-09T02:44:56;94861.28;;;14.70;100.00
35989;BME280;22064;42.672;23.282;2022-09-09T02:47:25;94867.28;;;14.66;100.00
35989;BME280;22064;42.672;23.282;2022-09-09T02:50:13;94866.25;;;14.72;100.00
35989;BME280;22064;42.672;23.282;2022-09-09T02:55:30;94868.06;;;14.76;100.00
35989;BME280;22064;42.672;23.282;2022-09-09T02:58:07;94855.75;;;14.87;100.00
35989;BME280;22064;42.672;23.282;2022-09-09T03:00:35;94862.31;;;14.90;100.00
35989;BME280;22064;42.672;23.282;2022-09-09T03:03:03;94852.63;;;14.80;100.00
35989;BME280;22064;42.672;23.282;2022-09-09T03:05:31;94860.72;;;14.89;100.00
35989;BME280;22064;42.672;23.282;2022-09-09T03:07:58;94854.41;;;14.95;100.00
35989;BME280;22064;42.672;23.282;2022-09-09T03:10:24;94852.06;;;15.04;100.00
35989;BME280;22064;42.672;23.282;2022-09-09T03:12:50;94858.34;;;15.18;100.00
35989;BME280;22064;42.672;23.282;2022-09-09T03:15:16;94857.28;;;15.24;100.00
35989;BME280;22064;42.672;23.282;2022-09-09T03:17:42;94858.34;;;15.18;100.00
35989;BME280;22064;42.672;23.282;2022-09-09T03:20:09;94857.31;;;15.04;100.00
35989;BME280;22064;42.672;23.282;2022-09-09T03:22:36;94857.03;;;14.95;100.00
35989;BME280;22064;42.672;23.282;2022-09-09T03:25:02;94857.31;;;15.04;100.00
35989;BME280;22064;42.672;23.282;2022-09-09T03:27:29;94850.75;;;15.06;100.00
35989;BME280;22064;42.672;23.282;2022-09-09T03:29:56;94850.47;;;15.08;100.00
35989;BME280;22064;42.672;23.282;2022-09-09T03:32:24;94853.59;;;15.30;100.00
35989;BME280;22064;42.672;23.282;2022-09-09T03:34:52;94839.97;;;15.33;100.00
35989;BME280;22064;42.672;23.282;2022-09-09T03:37:19;94853.28;;;15.42;100.00
35989;BME280;22064;42.672;23.282;2022-09-09T03:39:46;94853.28;;;15.47;100.00
35989;BME280;22064;42.672;23.282;2022-09-09T03:42:14;94848.31;;;15.45;100.00
35989;BME280;22064;42.672;23.282;2022-09-09T03:44:48;94848.28;;;15.51;100.00
35989;BME280;22064;42.672;23.282;2022-09-09T03:47:17;94851.44;;;15.58;100.00
35989;BME280;22064;42.672;23.282;2022-09-09T03:49:44;94846.72;;;15.50;100.00
35989;BME280;22064;42.672;23.282;2022-09-09T03:52:10;94856.19;;;15.40;100.00
35989;BME280;22064;42.672;23.282;2022-09-09T03:54:37;94863.81;;;15.32;100.00
35989;BME280;22064;42.672;23.282;2022-09-09T03:57:04;94866.22;;;15.13;100.00
35989;BME280;22064;42.672;23.282;2022-09-09T03:59:30;94854.72;;;14.98;100.00
35989;BME280;22064;42.672;23.282;2022-09-09T04:01:56;94863.06;;;15.00;100.00
35989;BME280;22064;42.672;23.282;2022-09-09T04:04:25;94867.53;;;15.10;100.00
35989;BME280;22064;42.672;23.282;2022-09-09T04:06:52;94866.75;;;14.99;100.00
35989;BME280;22064;42.672;23.282;2022-09-09T04:09:18;94869.91;;;14.91;100.00
35989;BME280;22064;42.672;23.282;2022-09-09T04:11:43;94861.50;;;14.99;100.00
35989;BME280;22064;42.672;23.282;2022-09-09T04:14:09;94847.59;;;15.09;100.00
35989;BME280;22064;42.672;23.282;2022-09-09T04:16:35;94871.47;;;15.18;100.00
35989;BME280;22064;42.672;23.282;2022-09-09T04:19:03;94863.59;;;14.97;100.00
35989;BME280;22064;42.672;23.282;2022-09-09T04:21:30;94866.72;;;15.20;100.00
35989;BME280;22064;42.672;23.282;2022-09-09T04:23:56;94860.16;;;15.22;100.00
35989;BME280;22064;42.672;23.282;2022-09-09T04:26:22;94846.25;;;15.32;100.00
35989;BME280;22064;42.672;23.282;2022-09-09T04:28:48;94865.84;;;15.60;100.00
35989;BME280;22064;42.672;23.282;2022-09-09T04:31:21;94876.06;;;15.77;100.00
35989;BME280;22064;42.672;23.282;2022-09-09T04:33:51;94868.22;;;15.72;100.00
35989;BME280;22064;42.672;23.282;2022-09-09T04:36:17;94878.47;;;15.68;100.00
35989;BME280;22064;42.672;23.282;2022-09-09T04:38:48;94874.53;;;15.51;100.00
35989;BME280;22064;42.672;23.282;2022-09-09T04:41:15;94884.00;;;15.52;100.00
35989;BME280;22064;42.672;23.282;2022-09-09T04:43:43;94878.47;;;15.58;100.00
35989;BME280;22064;42.672;23.282;2022-09-09T04:46:10;94880.25;;;15.83;100.00
35989;BME280;22064;42.672;23.282;2022-09-09T04:48:36;94862.34;;;15.96;100.00
35989;BME280;22064;42.672;23.282;2022-09-09T04:51:05;94869.63;;;16.14;100.00
35989;BME280;22064;42.672;23.282;2022-09-09T04:53:32;94860.66;;;16.20;100.00
35989;BME280;22064;42.672;23.282;2022-09-09T04:56:10;94855.31;;;16.35;100.00
35989;BME280;22064;42.672;23.282;2022-09-09T04:58:41;94865.38;;;16.62;100.00
35989;BME280;22064;42.672;23.282;2022-09-09T05:03:44;94863.72;;;16.77;100.00
35989;BME280;22064;42.672;23.282;2022-09-09T05:06:18;94821.88;;;16.80;100.00
35989;BME280;22064;42.672;23.282;2022-09-09T05:08:46;94834.66;;;17.21;100.00
35989;BME280;22064;42.672;23.282;2022-09-09T05:11:21;94836.19;;;17.27;100.00
35989;BME280;22064;42.672;23.282;2022-09-09T05:13:50;94853.72;;;17.37;100.00
35989;BME280;22064;42.672;23.282;2022-09-09T05:16:17;94862.16;;;17.63;100.00
35989;BME280;22064;42.672;23.282;2022-09-09T05:18:44;94856.81;;;17.68;100.00
35989;BME280;22064;42.672;23.282;2022-09-09T05:21:10;94855.72;;;17.69;100.00
35989;BME280;22064;42.672;23.282;2022-09-09T05:23:37;94841.09;;;17.63;100.00
35989;BME280;22064;42.672;23.282;2022-09-09T05:26:04;94820.28;;;17.62;100.00
35989;BME280;22064;42.672;23.282;2022-09-09T05:28:30;94852.13;;;17.89;100.00
35989;BME280;22064;42.672;23.282;2022-09-09T05:31:00;94858.13;;;17.95;100.00
35989;BME280;22064;42.672;23.282;2022-09-09T05:33:30;94861.00;;;18.17;100.00
35989;BME280;22064;42.672;23.282;2022-09-09T05:36:00;94853.97;;;18.32;100.00
35989;BME280;22064;42.672;23.282;2022-09-09T05:38:28;94850.97;;;18.38;100.00
35989;BME280;22064;42.672;23.282;2022-09-09T05:40:55;94863.13;;;18.53;100.00
35989;BME280;22064;42.672;23.282;2022-09-09T05:43:23;94860.63;;;18.62;100.00
35989;BME280;22064;42.672;23.282;2022-09-09T05:46:00;94866.41;;;18.45;100.00
35989;BME280;22064;42.672;23.282;2022-09-09T05:48:34;94877.22;;;18.24;100.00
35989;BME280;22064;42.672;23.282;2022-09-09T05:51:01;94872.53;;;18.21;100.00
35989;BME280;22064;42.672;23.282;2022-09-09T05:53:29;94868.28;;;18.26;100.00
35989;BME280;22064;42.672;23.282;2022-09-09T05:56:11;94865.59;;;18.07;100.00
35989;BME280;22064;42.672;23.282;2022-09-09T05:58:37;94862.34;;;18.15;100.00
35989;BME280;22064;42.672;23.282;2022-09-09T06:01:08;94870.25;;;18.34;100.00
35989;BME280;22064;42.672;23.282;2022-09-09T06:03:36;94877.53;;;18.42;100.00
35989;BME280;22064;42.672;23.282;2022-09-09T06:06:04;94894.19;;;18.56;100.00
35989;BME280;22064;42.672;23.282;2022-09-09T06:08:32;94881.91;;;18.09;100.00
35989;BME280;22064;42.672;23.282;2022-09-09T06:11:06;94880.88;;;17.86;100.00
35989;BME280;22064;42.672;23.282;2022-09-09T06:13:32;94880.38;;;17.84;100.00
35989;BME280;22064;42.672;23.282;2022-09-09T06:15:58;94863.16;;;17.67;100.00
35989;BME280;22064;42.672;23.282;2022-09-09T06:18:25;94877.66;;;17.65;100.00
35989;BME280;22064;42.672;23.282;2022-09-09T06:21:03;94875.47;;;17.72;100.00
35989;BME280;22064;42.672;23.282;2022-09-09T06:23:30;94879.50;;;18.12;100.00
35989;BME280;22064;42.672;23.282;2022-09-09T06:26:03;94881.81;;;18.57;100.00
35989;BME280;22064;42.672;23.282;2022-09-09T06:28:33;94852.72;;;18.81;100.00
35989;BME280;22064;42.672;23.282;2022-09-09T06:31:04;94887.03;;;19.13;100.00
35989;BME280;22064;42.672;23.282;2022-09-09T06:33:33;94879.59;;;19.15;100.00
35989;BME280;22064;42.672;23.282;2022-09-09T06:36:02;94872.91;;;19.37;100.00
35989;BME280;22064;42.672;23.282;2022-09-09T06:38:29;94867.09;;;19.07;100.00
35989;BME280;22064;42.672;23.282;2022-09-09T06:40:56;94869.41;;;18.95;100.00
35989;BME280;22064;42.672;23.282;2022-09-09T06:43:24;94866.91;;;18.85;100.00
35989;BME280;22064;42.672;23.282;2022-09-09T06:45:57;94867.47;;;19.01;100.00
35989;BME280;22064;42.672;23.282;2022-09-09T06:48:23;94859.31;;;19.30;100.00
35989;BME280;22064;42.672;23.282;2022-09-09T06:51:21;94852.78;;;19.55;100.00
35989;BME280;22064;42.672;23.282;2022-09-09T06:53:49;94882.03;;;19.58;100.00
35989;BME280;22064;42.672;23.282;2022-09-09T06:58:52;94886.84;;;19.84;100.00
35989;BME280;22064;42.672;23.282;2022-09-09T07:01:29;94884.78;;;19.53;100.00
35989;BME280;22064;42.672;23.282;2022-09-09T07:03:59;94892.78;;;19.48;100.00
35989;BME280;22064;42.672;23.282;2022-09-09T07:06:36;94882.16;;;19.81;100.00
35989;BME280;22064;42.672;23.282;2022-09-09T07:09:05;94880.91;;;19.78;100.00
35989;BME280;22064;42.672;23.282;2022-09-09T07:11:40;94885.59;;;19.68;100.00
35989;BME280;22064;42.672;23.282;2022-09-09T07:14:07;94875.81;;;19.96;100.00
35989;BME280;22064;42.672;23.282;2022-09-09T07:16:34;94875.84;;;20.32;100.00
35989;BME280;22064;42.672;23.282;2022-09-09T07:19:03;94886.59;;;20.63;100.00
35989;BME280;22064;42.672;23.282;2022-09-09T07:21:31;94879.84;;;21.02;100.00
35989;BME280;22064;42.672;23.282;2022-09-09T07:23:58;94872.69;;;21.25;100.00
35989;BME280;22064;42.672;23.282;2022-09-09T07:26:28;94870.97;;;21.52;100.00
35989;BME280;22064;42.672;23.282;2022-09-09T07:28:54;94867.34;;;21.79;100.00
35989;BME280;22064;42.672;23.282;2022-09-09T07:31:28;94872.72;;;22.05;100.00
35989;BME280;22064;42.672;23.282;2022-09-09T07:33:56;94865.94;;;22.39;100.00
35989;BME280;22064;42.672;23.282;2022-09-09T07:36:24;94855.00;;;22.49;100.00
35989;BME280;22064;42.672;23.282;2022-09-09T07:38:54;94869.72;;;22.81;100.00
35989;BME280;22064;42.672;23.282;2022-09-09T07:43:51;94869.22;;;23.14;100.00
35989;BME280;22064;42.672;23.282;2022-09-09T07:46:21;94869.97;;;23.32;100.00
35989;BME280;22064;42.672;23.282;2022-09-09T07:48:49;94874.94;;;23.42;100.00
35989;BME280;22064;42.672;23.282;2022-09-09T07:51:20;94878.47;;;23.63;100.00
35989;BME280;22064;42.672;23.282;2022-09-09T07:53:52;94877.47;;;23.85;100.00
35989;BME280;22064;42.672;23.282;2022-09-09T07:56:19;94859.53;;;22.83;100.00
35989;BME280;22064;42.672;23.282;2022-09-09T07:58:50;94871.06;;;23.31;100.00
35989;BME280;22064;42.672;23.282;2022-09-09T08:01:21;94872.59;;;23.49;100.00
35989;BME280;22064;42.672;23.282;2022-09-09T08:03:56;94875.53;;;23.56;100.00
35989;BME280;22064;42.672;23.282;2022-09-09T08:06:27;94871.25;;;23.81;100.00
35989;BME280;22064;42.672;23.282;2022-09-09T08:08:53;94872.00;;;23.82;100.00
35989;BME280;22064;42.672;23.282;2022-09-09T08:11:23;94871.41;;;23.76;100.00
35989;BME280;22064;42.672;23.282;2022-09-09T08:13:50;94869.84;;;23.75;100.00
35989;BME280;22064;42.672;23.282;2022-09-09T08:16:22;94870.13;;;23.35;100.00
35989;BME280;22064;42.672;23.282;2022-09-09T08:18:51;94871.59;;;23.71;100.00
35989;BME280;22064;42.672;23.282;2022-09-09T08:21:21;94869.06;;;24.04;100.00
35989;BME280;22064;42.672;23.282;2022-09-09T08:23:47;94872.75;;;24.50;94.65
35989;BME280;22064;42.672;23.282;2022-09-09T08:26:17;94870.16;;;24.62;88.69
35989;BME280;22064;42.672;23.282;2022-09-09T08:28:49;94869.97;;;25.01;90.82
35989;BME280;22064;42.672;23.282;2022-09-09T08:31:21;94864.75;;;25.25;84.62
35989;BME280;22064;42.672;23.282;2022-09-09T08:33:47;94862.75;;;25.22;80.58
35989;BME280;22064;42.672;23.282;2022-09-09T08:36:18;94860.84;;;24.89;85.76
35989;BME280;22064;42.672;23.282;2022-09-09T08:38:54;94866.31;;;25.26;84.51
35989;BME280;22064;42.672;23.282;2022-09-09T08:58:15;94863.50;;;26.42;69.48
35989;BME280;22064;42.672;23.282;2022-09-09T09:11:57;94858.97;;;27.11;62.07
35989;BME280;22064;42.672;23.282;2022-09-09T09:14:31;94858.88;;;27.07;63.96
35989;BME280;22064;42.672;23.282;2022-09-09T09:17:06;94857.81;;;27.24;63.88
35989;BME280;22064;42.672;23.282;2022-09-09T09:19:35;94848.94;;;27.52;61.37
35989;BME280;22064;42.672;23.282;2022-09-09T09:22:06;94853.09;;;27.65;59.10
35989;BME280;22064;42.672;23.282;2022-09-09T09:27:58;94851.91;;;27.18;61.44
35989;BME280;22064;42.672;23.282;2022-09-09T09:30:42;94860.41;;;27.52;59.36
35989;BME280;22064;42.672;23.282;2022-09-09T09:35:49;94844.41;;;27.84;57.92
35989;BME280;22064;42.672;23.282;2022-09-09T09:38:21;94848.72;;;27.89;55.70
35989;BME280;22064;42.672;23.282;2022-09-09T09:40:54;94845.06;;;27.97;55.00
35989;BME280;22064;42.672;23.282;2022-09-09T09:43:32;94846.97;;;27.96;55.26
35989;BME280;22064;42.672;23.282;2022-09-09T09:46:03;94832.81;;;27.96;54.08
35989;BME280;22064;42.672;23.282;2022-09-09T09:48:30;94835.66;;;27.71;56.10
35989;BME280;22064;42.672;23.282;2022-09-09T09:50:59;94826.34;;;27.65;56.11
35989;BME280;22064;42.672;23.282;2022-09-09T09:53:28;94835.75;;;27.59;55.39
35989;BME280;22064;42.672;23.282;2022-09-09T09:56:03;94825.41;;;27.73;56.68
35989;BME280;22064;42.672;23.282;2022-09-09T09:58:32;94823.50;;;27.74;57.00
35989;BME280;22064;42.672;23.282;2022-09-09T10:01:00;94812.53;;;27.95;54.28
35989;BME280;22064;42.672;23.282;2022-09-09T10:03:33;94788.72;;;27.58;54.02
35989;BME280;22064;42.672;23.282;2022-09-09T10:06:04;94835.16;;;27.81;53.93
35989;BME280;22064;42.672;23.282;2022-09-09T10:08:33;94833.78;;;27.88;55.22
35989;BME280;22064;42.672;23.282;2022-09-09T10:19:10;94830.72;;;26.98;57.70
35989;BME280;22064;42.672;23.282;2022-09-09T10:21:59;94845.91;;;26.41;64.56
35989;BME280;22064;42.672;23.282;2022-09-09T10:30:19;94843.28;;;26.16;66.19
35989;BME280;22064;42.672;23.282;2022-09-09T10:35:35;94851.28;;;25.67;75.94
35989;BME280;22064;42.672;23.282;2022-09-09T10:55:17;94850.09;;;24.44;100.00
35989;BME280;22064;42.672;23.282;2022-09-09T10:57:46;94846.22;;;24.12;100.00
35989;BME280;22064;42.672;23.282;2022-09-09T11:00:19;94845.00;;;24.30;100.00
35989;BME280;22064;42.672;23.282;2022-09-09T11:02:48;94835.66;;;24.24;100.00
35989;BME280;22064;42.672;23.282;2022-09-09T11:05:23;94839.19;;;24.07;100.00
35989;BME280;22064;42.672;23.282;2022-09-09T11:08:03;94838.03;;;24.17;100.00
35989;BME280;22064;42.672;23.282;2022-09-09T11:13:14;94833.50;;;24.17;100.00
35989;BME280;22064;42.672;23.282;2022-09-09T11:15:50;94831.56;;;23.97;100.00
35989;BME280;22064;42.672;23.282;2022-09-09T11:18:20;94829.53;;;24.03;100.00
35989;BME280;22064;42.672;23.282;2022-09-09T11:20:49;94835.22;;;24.13;100.00
35989;BME280;22064;42.672;23.282;2022-09-09T11:23:24;94823.09;;;24.04;100.00
35989;BME280;22064;42.672;23.282;2022-09-09T11:25:55;94830.88;;;24.30;100.00
35989;BME280;22064;42.672;23.282;2022-09-09T11:38:52;94776.84;;;24.38;100.00
35989;BME280;22064;42.672;23.282;2022-09-09T11:41:19;94785.28;;;24.61;100.00
35989;BME280;22064;42.672;23.282;2022-09-09T11:46:13;94770.75;;;25.04;100.00
35989;BME280;22064;42.672;23.282;2022-09-09T11:48:45;94747.84;;;25.24;100.00
35989;BME280;22064;42.672;23.282;2022-09-09T11:53:58;94741.41;;;25.74;100.00
35989;BME280;22064;42.672;23.282;2022-09-09T11:56:30;94750.69;;;26.45;100.00
35989;BME280;22064;42.672;23.282;2022-09-09T12:01:45;94744.94;;;27.15;95.11
35989;BME280;22064;42.672;23.282;2022-09-09T12:12:36;94747.78;;;28.83;71.89
35989;BME280;22064;42.672;23.282;2022-09-09T12:17:46;94733.47;;;29.17;68.98
35989;BME280;22064;42.672;23.282;2022-09-09T12:20:21;94731.22;;;29.46;64.51
35989;BME280;22064;42.672;23.282;2022-09-09T12:28:54;94725.06;;;29.95;60.87
35989;BME280;22064;42.672;23.282;2022-09-09T12:31:27;94724.63;;;29.93;60.75
35989;BME280;22064;42.672;23.282;2022-09-09T12:37:35;94721.16;;;29.62;59.12
35989;BME280;22064;42.672;23.282;2022-09-09T12:39:59;94723.03;;;29.35;58.01
35989;BME280;22064;42.672;23.282;2022-09-09T12:42:26;94711.09;;;29.33;53.75
35989;BME280;22064;42.672;23.282;2022-09-09T12:44:55;94721.44;;;29.08;55.24
35989;BME280;22064;42.672;23.282;2022-09-09T12:47:26;94717.97;;;27.71;63.83
35989;BME280;22064;42.672;23.282;2022-09-09T12:49:54;94711.66;;;26.68;78.93
35989;BME280;22064;42.672;23.282;2022-09-09T12:52:36;94714.81;;;27.02;76.82
35989;BME280;22064;42.672;23.282;2022-09-09T12:55:06;94706.78;;;27.50;75.97
35989;BME280;22064;42.672;23.282;2022-09-09T12:57:39;94708.13;;;28.11;72.66
35989;BME280;22064;42.672;23.282;2022-09-09T13:00:20;94708.53;;;28.32;67.92
35989;BME280;22064;42.672;23.282;2022-09-09T13:02:56;94695.78;;;28.25;65.66
35989;BME280;22064;42.672;23.282;2022-09-09T13:05:34;94702.59;;;27.33;73.27
35989;BME280;22064;42.672;23.282;2022-09-09T13:08:10;94682.97;;;26.65;86.55
35989;BME280;22064;42.672;23.282;2022-09-09T13:10:59;94689.22;;;26.01;100.00
35989;BME280;22064;42.672;23.282;2022-09-09T13:13:37;94683.16;;;25.76;100.00
35989;BME280;22064;42.672;23.282;2022-09-09T13:16:05;94694.50;;;25.73;100.00
35989;BME280;22064;42.672;23.282;2022-09-09T13:18:40;94689.97;;;26.14;100.00
35989;BME280;22064;42.672;23.282;2022-09-09T13:21:06;94673.06;;;25.82;100.00
35989;BME280;22064;42.672;23.282;2022-09-09T13:23:34;94668.31;;;26.31;100.00
35989;BME280;22064;42.672;23.282;2022-09-09T13:26:03;94674.47;;;26.47;98.74
35989;BME280;22064;42.672;23.282;2022-09-09T13:28:30;94655.16;;;26.82;89.82
35989;BME280;22064;42.672;23.282;2022-09-09T13:30:58;94655.41;;;27.09;86.38
35989;BME280;22064;42.672;23.282;2022-09-09T13:33:38;94668.84;;;27.28;86.04
35989;BME280;22064;42.672;23.282;2022-09-09T13:36:09;94666.63;;;27.30;87.27
35989;BME280;22064;42.672;23.282;2022-09-09T13:38:56;94655.09;;;27.26;86.06
35989;BME280;22064;42.672;23.282;2022-09-09T13:41:42;94661.41;;;27.53;82.25
35989;BME280;22064;42.672;23.282;2022-09-09T13:44:22;94649.38;;;27.79;80.63
35989;BME280;22064;42.672;23.282;2022-09-09T13:47:00;94626.75;;;28.15;72.32
35989;BME280;22064;42.672;23.282;2022-09-09T13:49:29;94640.13;;;28.54;68.44
35989;BME280;22064;42.672;23.282;2022-09-09T13:52:09;94663.88;;;28.78;66.43
35989;BME280;22064;42.672;23.282;2022-09-09T13:54:35;94640.81;;;28.97;63.94
35989;BME280;22064;42.672;23.282;2022-09-09T13:57:01;94647.25;;;29.15;65.26
35989;BME280;22064;42.672;23.282;2022-09-09T13:59:26;94640.56;;;29.29;62.48
35989;BME280;22064;42.672;23.282;2022-09-09T14:01:52;94641.22;;;29.75;59.42
35989;BME280;22064;42.672;23.282;2022-09-09T14:04:19;94652.81;;;29.56;60.51
35989;BME280;22064;42.672;23.282;2022-09-09T14:06:48;94639.88;;;29.92;55.44
35989;BME280;22064;42.672;23.282;2022-09-09T14:09:16;94638.78;;;30.68;52.98
35989;BME280;22064;42.672;23.282;2022-09-09T14:11:43;94634.47;;;31.52;49.99
35989;BME280;22064;42.672;23.282;2022-09-09T14:14:09;94629.19;;;31.66;48.21
35989;BME280;22064;42.672;23.282;2022-09-09T14:16:35;94638.09;;;31.85;47.73
35989;BME280;22064;42.672;23.282;2022-09-09T14:19:01;94634.56;;;31.66;47.32
35989;BME280;22064;42.672;23.282;2022-09-09T14:21:27;94632.88;;;30.89;48.85
35989;BME280;22064;42.672;23.282;2022-09-09T14:23:53;94627.09;;;30.49;50.46
35989;BME280;22064;42.672;23.282;2022-09-09T14:26:22;94640.06;;;30.06;53.36
35989;BME280;22064;42.672;23.282;2022-09-09T14:28:49;94640.94;;;29.84;54.68
35989;BME280;22064;42.672;23.282;2022-09-09T14:31:16;94646.63;;;30.12;54.60
35989;BME280;22064;42.672;23.282;2022-09-09T14:33:43;94643.94;;;30.83;51.48
35989;BME280;22064;42.672;23.282;2022-09-09T14:36:09;94637.06;;;30.86;51.18
35989;BME280;22064;42.672;23.282;2022-09-09T14:38:37;94638.38;;;31.06;50.02
35989;BME280;22064;42.672;23.282;2022-09-09T14:41:09;94639.50;;;31.54;47.22
35989;BME280;22064;42.672;23.282;2022-09-09T14:43:37;94634.41;;;30.90;48.62
35989;BME280;22064;42.672;23.282;2022-09-09T14:46:11;94626.44;;;29.88;52.10
35989;BME280;22064;42.672;23.282;2022-09-09T14:48:38;94632.88;;;29.84;53.75
35989;BME280;22064;42.672;23.282;2022-09-09T14:51:10;94631.03;;;29.88;53.97
35989;BME280;22064;42.672;23.282;2022-09-09T14:53:39;94624.31;;;29.44;55.80
35989;BME280;22064;42.672;23.282;2022-09-09T14:56:06;94627.00;;;28.95;58.31
35989;BME280;22064;42.672;23.282;2022-09-09T14:58:32;94632.94;;;28.85;59.38
35989;BME280;22064;42.672;23.282;2022-09-09T15:01:05;94634.84;;;29.04;58.82
35989;BME280;22064;42.672;23.282;2022-09-09T15:03:31;94644.38;;;28.82;60.59
35989;BME280;22064;42.672;23.282;2022-09-09T15:05:57;94639.63;;;28.71;61.44
35989;BME280;22064;42.672;23.282;2022-09-09T15:08:24;94657.72;;;28.78;63.03
35989;BME280;22064;42.672;23.282;2022-09-09T15:10:50;94655.94;;;28.86;61.55
35989;BME280;22064;42.672;23.282;2022-09-09T15:13:15;94660.75;;;28.99;62.18
35989;BME280;22064;42.672;23.282;2022-09-09T15:15:44;94657.53;;;29.10;62.85
35989;BME280;22064;42.672;23.282;2022-09-09T15:18:09;94663.69;;;29.40;60.34
35989;BME280;22064;42.672;23.282;2022-09-09T15:20:35;94657.06;;;30.18;57.08
35989;BME280;22064;42.672;23.282;2022-09-09T15:23:03;94660.31;;;32.58;48.29
35989;BME280;22064;42.672;23.282;2022-09-09T15:25:28;94655.97;;;35.37;39.59
35989;BME280;22064;42.672;23.282;2022-09-09T15:27:54;94658.72;;;37.44;35.39
35989;BME280;22064;42.672;23.282;2022-09-09T15:30:21;94650.34;;;38.75;32.91
35989;BME280;22064;42.672;23.282;2022-09-09T15:32:47;94646.25;;;39.36;30.94
35989;BME280;22064;42.672;23.282;2022-09-09T15:35:12;94645.09;;;37.92;31.79
35989;BME280;22064;42.672;23.282;2022-09-09T15:37:38;94643.75;;;36.31;33.49